Time;durP1;ratioP1;P1;durP2;ratioP2;P2;SDS_P1;SDS_P2;PMS_P1;PMS_P2;Temp;Humidity;BMP_temperature;BMP_pressure;BME280_temperature;BME280_humidity;BME280_pressure;Samples;Min_cycle;Max_cycle;Signal;HPM_P1;HPM_P2
2022/11/04 00:06:19;;;;;;;1.63;0.20;;;10.70;99.90;;;;;;20735303;28;20068;-38
2022/11/04 00:37:01;;;;;;;5.70;1.08;;;10.70;99.90;;;;;;20701268;28;20136;-37
2022/11/04 00:47:02;;;;;;;2.03;0.35;;;10.60;99.90;;;;;;20688903;28;20549;-38
2022/11/04 00:57:04;;;;;;;2.05;0.90;;;10.60;99.90;;;;;;20704190;28;20127;-38
2022/11/04 01:07:05;;;;;;;0.47;0.30;;;10.60;99.90;;;;;;20741687;28;20782;-38
2022/11/04 01:17:06;;;;;;;1.77;0.40;;;10.50;99.90;;;;;;20695313;28;20604;-37
2022/11/04 01:27:07;;;;;;;3.25;0.50;;;10.50;99.90;;;;;;20699614;28;20271;-37
2022/11/04 01:37:08;;;;;;;1.48;0.52;;;10.40;99.90;;;;;;20685214;28;20209;-37
2022/11/04 01:47:34;;;;;;;2.28;1.15;;;10.40;99.90;;;;;;20753114;28;20047;-37
2022/11/04 01:57:41;;;;;;;2.13;0.50;;;10.40;99.90;;;;;;20726423;28;20141;-37
2022/11/04 02:07:42;;;;;;;0.83;0.40;;;10.30;99.90;;;;;;20722126;28;20305;-37
2022/11/04 02:18:16;;;;;;;0.50;0.20;;;10.30;99.90;;;;;;20719119;28;20541;-37
2022/11/04 02:28:49;;;;;;;2.47;0.30;;;10.30;99.90;;;;;;20697734;28;20140;-37
2022/11/04 02:39:27;;;;;;;0.95;0.47;;;10.20;99.90;;;;;;20692834;28;20943;-38
2022/11/04 02:50:10;;;;;;;1.50;0.88;;;10.00;99.90;;;;;;20746379;28;20077;-38
2022/11/04 03:00:13;;;;;;;1.45;0.65;;;9.90;99.90;;;;;;20730295;28;20953;-38
2022/11/04 03:10:24;;;;;;;0.93;0.30;;;9.90;99.90;;;;;;20703381;28;20073;-38
2022/11/04 03:20:27;;;;;;;1.17;0.40;;;9.80;99.90;;;;;;20667962;28;20137;-38
2022/11/04 03:30:38;;;;;;;1.73;1.00;;;9.70;99.90;;;;;;20722461;28;20072;-37
2022/11/04 03:40:39;;;;;;;2.78;1.15;;;9.60;99.90;;;;;;20800712;28;20101;-38
2022/11/04 03:50:43;;;;;;;5.82;2.00;;;9.40;99.90;;;;;;20756419;28;20121;-38
2022/11/04 04:00:51;;;;;;;10.98;2.00;;;9.30;99.90;;;;;;20754473;28;20129;-37
2022/11/04 04:11:20;;;;;;;5.68;1.90;;;9.30;99.90;;;;;;20754072;28;20133;-39
2022/11/04 04:21:26;;;;;;;20.60;2.03;;;9.20;99.90;;;;;;20770113;28;20080;-40
2022/11/04 04:52:09;;;;;;;6.60;2.10;;;9.10;99.90;;;;;;20758301;28;20472;-40
2022/11/04 05:02:10;;;;;;;6.70;2.45;;;9.00;99.90;;;;;;20764385;28;20981;-40
2022/11/04 05:12:11;;;;;;;5.18;2.35;;;9.10;99.90;;;;;;20768343;28;20053;-40
2022/11/04 05:22:12;;;;;;;9.63;2.70;;;9.10;99.90;;;;;;20747059;28;20076;-40
2022/11/04 05:32:13;;;;;;;4.85;2.92;;;9.00;99.90;;;;;;20765189;28;20551;-40
2022/11/04 05:42:14;;;;;;;7.85;4.57;;;8.90;99.90;;;;;;20760548;28;20084;-40
2022/11/04 05:52:15;;;;;;;8.05;3.85;;;8.80;99.90;;;;;;20762159;28;20070;-40
2022/11/04 06:02:16;;;;;;;5.53;2.75;;;8.60;99.90;;;;;;20762704;28;20076;-40
2022/11/04 06:12:17;;;;;;;7.43;3.05;;;8.70;99.90;;;;;;20760326;28;20045;-40
2022/11/04 06:22:19;;;;;;;13.23;6.13;;;8.70;99.90;;;;;;20766275;28;20071;-40
2022/11/04 06:32:19;;;;;;;10.05;5.43;;;8.50;99.90;;;;;;20754034;28;20255;-40
2022/11/04 06:42:20;;;;;;;7.57;4.30;;;8.30;99.90;;;;;;20761751;28;20053;-40
2022/11/04 06:52:21;;;;;;;9.63;4.68;;;8.20;99.90;;;;;;20765390;28;20053;-40
2022/11/04 07:02:22;;;;;;;11.70;3.92;;;8.20;99.90;;;;;;20780655;28;20037;-40
2022/11/04 07:12:23;;;;;;;8.70;4.72;;;8.30;99.90;;;;;;20778588;28;20548;-40
2022/11/04 07:22:24;;;;;;;8.77;3.92;;;8.20;99.90;;;;;;20772190;28;20068;-40
2022/11/04 07:32:25;;;;;;;6.75;3.72;;;8.30;99.90;;;;;;20784759;28;20056;-40
2022/11/04 07:42:26;;;;;;;6.78;3.53;;;8.30;99.90;;;;;;20791271;28;20057;-40
2022/11/04 07:52:27;;;;;;;8.23;3.83;;;8.40;99.90;;;;;;20788838;28;20081;-39
2022/11/04 08:02:28;;;;;;;5.32;3.47;;;8.50;99.90;;;;;;20783681;28;20049;-40
2022/11/04 08:12:31;;;;;;;7.43;4.32;;;8.70;99.90;;;;;;20783558;28;20045;-40
2022/11/04 08:22:33;;;;;;;8.95;3.97;;;8.90;99.90;;;;;;20782568;28;20749;-40
2022/11/04 08:32:34;;;;;;;8.18;3.72;;;9.20;99.90;;;;;;20782950;28;20334;-40
2022/11/04 08:42:35;;;;;;;6.03;2.97;;;9.30;99.90;;;;;;20781623;28;20045;-40
2022/11/04 08:52:36;;;;;;;6.30;2.92;;;9.50;99.90;;;;;;20783232;28;20607;-40
2022/11/04 09:02:39;;;;;;;6.68;3.35;;;9.70;99.90;;;;;;20791223;28;20041;-40
2022/11/04 09:12:41;;;;;;;5.05;3.10;;;9.80;99.90;;;;;;20783601;28;20085;-39
2022/11/04 09:22:42;;;;;;;6.88;3.05;;;10.00;99.90;;;;;;20782264;28;20029;-40
2022/11/04 09:32:43;;;;;;;6.38;3.03;;;10.20;99.90;;;;;;20787016;28;20054;-40
2022/11/04 09:43:21;;;;;;;6.05;3.00;;;10.40;99.90;;;;;;20757231;28;20053;-40
2022/11/04 09:53:43;;;;;;;8.98;3.40;;;10.80;99.90;;;;;;20781479;28;20070;-40
2022/11/04 10:03:44;;;;;;;6.15;2.63;;;11.10;99.90;;;;;;20783437;28;20824;-40
2022/11/04 10:14:11;;;;;;;3.53;1.83;;;11.30;99.90;;;;;;20784754;28;20090;-40
2022/11/04 10:24:22;;;;;;;4.90;2.15;;;11.60;99.90;;;;;;20782562;28;20114;-40
2022/11/04 10:34:36;;;;;;;2.03;0.98;;;11.50;99.90;;;;;;20797295;28;20076;-40
2022/11/04 10:44:37;;;;;;;5.95;2.65;;;11.40;99.90;;;;;;20790340;28;20342;-40
2022/11/04 10:54:42;;;;;;;5.28;2.78;;;11.50;99.90;;;;;;20787441;28;20041;-40
2022/11/04 11:04:45;;;;;;;3.85;2.30;;;11.50;99.90;;;;;;20796446;28;20095;-40
2022/11/04 11:14:47;;;;;;;3.72;1.63;;;11.80;99.90;;;;;;20790387;28;20054;-40
2022/11/04 11:24:48;;;;;;;2.53;1.20;;;12.40;99.90;;;;;;20797409;28;20106;-40
2022/11/04 11:34:49;;;;;;;3.40;1.52;;;12.20;99.90;;;;;;20780720;28;20045;-40
2022/11/04 11:44:57;;;;;;;3.25;1.38;;;12.00;99.90;;;;;;20785014;28;20056;-40
2022/11/04 11:55:23;;;;;;;4.25;1.55;;;12.10;99.90;;;;;;20771689;28;20065;-38
2022/11/04 12:05:39;;;;;;;5.72;1.42;;;12.90;99.90;;;;;;20788613;28;20772;-38
2022/11/04 12:15:59;;;;;;;4.07;1.02;;;13.30;99.90;;;;;;20778683;28;21802;-38
2022/11/04 12:26:15;;;;;;;2.45;1.55;;;13.20;99.90;;;;;;20776736;28;20048;-38
2022/11/04 12:36:36;;;;;;;1.83;0.43;;;13.50;99.90;;;;;;20766443;28;20527;-38
2022/11/04 12:46:52;;;;;;;0.40;0.20;;;14.00;99.90;;;;;;20757678;28;20239;-38
2022/11/04 12:57:18;;;;;;;0.98;0.32;;;13.70;99.90;;;;;;20765257;28;20510;-38
2022/11/04 13:07:28;;;;;;;0.65;0.10;;;12.60;99.90;;;;;;20753667;28;20041;-40
2022/11/04 13:17:37;;;;;;;0.40;0.10;;;13.30;99.90;;;;;;20744252;28;20042;-38
2022/11/04 13:27:47;;;;;;;0.40;0.10;;;14.10;99.90;;;;;;20758709;28;20784;-38
2022/11/04 13:37:57;;;;;;;0.13;0.00;;;14.40;99.90;;;;;;20766750;28;20053;-38
2022/11/04 13:47:59;;;;;;;0.70;0.10;;;13.20;99.90;;;;;;20736192;28;20042;-38
2022/11/04 13:58:05;;;;;;;0.88;0.10;;;12.40;99.90;;;;;;20748925;28;20046;-38
2022/11/04 14:08:12;;;;;;;0.25;0.10;;;12.20;99.90;;;;;;20761617;28;20034;-38
2022/11/04 14:18:27;;;;;;;1.80;0.90;;;12.00;99.90;;;;;;20763259;28;20120;-38
2022/11/04 14:28:29;;;;;;;0.75;0.40;;;11.90;99.90;;;;;;20731362;28;20119;-38
2022/11/04 14:38:32;;;;;;;0.65;0.20;;;11.80;99.90;;;;;;20758553;28;20045;-38
2022/11/04 14:48:34;;;;;;;0.90;0.30;;;11.70;99.90;;;;;;20754447;28;20241;-38
2022/11/04 14:58:35;;;;;;;0.70;0.40;;;11.70;99.90;;;;;;20746920;28;20094;-38
2022/11/04 15:08:40;;;;;;;0.80;0.20;;;11.70;99.90;;;;;;20742527;28;21221;-38
2022/11/04 15:18:41;;;;;;;0.82;0.20;;;11.60;99.90;;;;;;20769355;28;20128;-38
2022/11/04 15:28:47;;;;;;;1.10;0.20;;;11.40;99.90;;;;;;20766368;28;20049;-39
2022/11/04 15:39:01;;;;;;;1.05;0.20;;;11.20;99.90;;;;;;20744308;28;20212;-38
2022/11/04 15:49:05;;;;;;;1.25;0.68;;;11.10;99.90;;;;;;20755298;28;20122;-38
2022/11/04 15:59:13;;;;;;;1.15;0.30;;;10.90;99.90;;;;;;20766835;28;20598;-38
2022/11/04 16:09:26;;;;;;;2.55;1.00;;;10.70;99.90;;;;;;20767727;28;20045;-38
2022/11/04 16:19:29;;;;;;;1.42;0.63;;;10.50;99.90;;;;;;20754013;28;20515;-38
2022/11/04 16:29:32;;;;;;;1.27;0.47;;;10.20;99.90;;;;;;20751490;28;20113;-38
2022/11/04 16:39:33;;;;;;;0.98;0.47;;;10.00;99.90;;;;;;20742063;28;20868;-38
2022/11/04 16:49:34;;;;;;;1.15;0.50;;;9.90;99.90;;;;;;20746556;28;20034;-38
2022/11/04 16:59:36;;;;;;;1.55;0.60;;;9.80;99.90;;;;;;20758249;28;20048;-38
2022/11/04 17:09:37;;;;;;;1.88;0.90;;;9.80;99.90;;;;;;20741009;28;20828;-38
2022/11/04 17:19:38;;;;;;;2.50;0.77;;;9.70;99.90;;;;;;20751287;28;20442;-38
2022/11/04 17:29:39;;;;;;;2.55;0.98;;;9.60;99.90;;;;;;20745316;28;20465;-38
2022/11/04 17:39:40;;;;;;;2.63;1.25;;;9.50;99.90;;;;;;20727936;28;20375;-41
2022/11/04 17:49:41;;;;;;;2.40;1.05;;;9.50;99.90;;;;;;20739344;28;20129;-41
2022/11/04 17:59:42;;;;;;;2.20;1.27;;;9.50;99.90;;;;;;20721605;28;20141;-41
2022/11/04 18:09:43;;;;;;;1.90;0.93;;;9.40;99.90;;;;;;20734412;28;20053;-38
2022/11/04 18:19:44;;;;;;;9.57;1.73;;;9.20;99.90;;;;;;20727877;28;20719;-38
2022/11/04 18:29:45;;;;;;;8.50;2.47;;;9.10;99.90;;;;;;20739812;28;20486;-38
2022/11/04 18:39:46;;;;;;;3.55;1.92;;;9.00;99.90;;;;;;20747535;28;20161;-38
2022/11/04 18:49:48;;;;;;;6.03;2.75;;;8.80;99.90;;;;;;20765920;28;20183;-38
2022/11/04 18:59:49;;;;;;;3.75;2.03;;;8.70;99.90;;;;;;20762631;28;20415;-38
2022/11/04 19:09:50;;;;;;;4.32;1.40;;;8.70;99.90;;;;;;20758865;28;20041;-37
2022/11/04 19:19:51;;;;;;;3.22;1.38;;;8.80;99.90;;;;;;20761432;28;20041;-37
2022/11/04 19:29:52;;;;;;;5.15;1.65;;;8.70;99.90;;;;;;20747955;28;20100;-37
2022/11/04 19:39:53;;;;;;;6.63;2.65;;;8.70;99.90;;;;;;20757082;28;20107;-38
2022/11/04 19:49:54;;;;;;;2.60;1.67;;;8.60;99.90;;;;;;20749251;28;20125;-38
2022/11/04 19:59:56;;;;;;;4.75;1.83;;;8.50;99.90;;;;;;20769811;28;20285;-38
2022/11/04 20:09:57;;;;;;;8.35;3.10;;;8.40;99.90;;;;;;20743773;28;20038;-37
2022/11/04 20:19:58;;;;;;;7.00;3.75;;;8.30;99.90;;;;;;20751922;28;20690;-37
2022/11/04 20:29:59;;;;;;;10.15;4.70;;;8.10;99.90;;;;;;20758353;28;20258;-38
2022/11/04 20:40:00;;;;;;;9.45;4.32;;;7.90;99.90;;;;;;20754009;28;20136;-38
2022/11/04 20:50:01;;;;;;;7.20;3.72;;;7.90;99.90;;;;;;20748447;28;20105;-38
2022/11/04 21:00:06;;;;;;;4.43;2.58;;;7.80;99.90;;;;;;20755018;28;21134;-38
2022/11/04 21:10:07;;;;;;;8.43;2.20;;;7.80;99.90;;;;;;20749087;28;20036;-38
2022/11/04 21:20:08;;;;;;;7.40;3.08;;;7.90;99.90;;;;;;20760623;28;20064;-39
2022/11/04 21:30:12;;;;;;;4.72;2.33;;;7.80;99.90;;;;;;20754780;28;20122;-40
2022/11/04 21:40:12;;;;;;;2.17;1.20;;;7.90;99.90;;;;;;20757124;28;20103;-39
2022/11/04 21:50:14;;;;;;;2.22;1.15;;;8.10;99.90;;;;;;20754613;28;20038;-39
2022/11/04 22:00:15;;;;;;;3.45;0.80;;;8.20;99.90;;;;;;20760799;28;20123;-39
2022/11/04 22:10:16;;;;;;;1.23;0.55;;;8.30;99.90;;;;;;20775771;28;20029;-39
2022/11/04 22:20:17;;;;;;;2.10;0.95;;;8.40;99.90;;;;;;20923429;22;20042;-79
2022/11/04 22:30:18;;;;;;;7.40;2.38;;;8.40;99.90;;;;;;20606795;28;20072;-79
2022/11/04 22:40:20;;;;;;;1.83;0.80;;;8.40;99.90;;;;;;20565434;28;20113;-79
2022/11/04 22:50:21;;;;;;;0.98;0.40;;;8.40;99.90;;;;;;20598011;28;20172;-79
2022/11/04 23:00:22;;;;;;;1.67;0.47;;;8.50;99.90;;;;;;20592600;28;20462;-79
2022/11/04 23:20:42;;;;;;;1.52;0.82;;;8.50;99.90;;;;;;20421740;28;20182;-79
2022/11/04 23:30:49;;;;;;;2.25;0.75;;;8.30;99.90;;;;;;20470502;28;20040;-79
